createdAt,value
2023-04-30T00:00:37.394Z,962.42
2023-04-30T00:01:32.657Z,962.42
2023-04-30T00:02:27.938Z,962.44
2023-04-30T00:03:23.381Z,962.40
2023-04-30T00:04:18.445Z,962.42
2023-04-30T00:05:13.702Z,962.44
2023-04-30T00:06:08.758Z,962.46
2023-04-30T00:07:03.928Z,962.50
2023-04-30T00:07:59.213Z,962.46
2023-04-30T00:08:54.359Z,962.50
2023-04-30T00:09:49.580Z,962.50
2023-04-30T00:10:44.841Z,962.52
2023-04-30T00:11:40.096Z,962.50
2023-04-30T00:12:35.371Z,962.50
2023-04-30T00:13:30.480Z,962.48
2023-04-30T00:14:25.721Z,962.46
2023-04-30T00:15:21.101Z,962.50
2023-04-30T00:16:16.255Z,962.48
2023-04-30T00:17:11.420Z,962.54
2023-04-30T00:18:06.906Z,962.56
2023-04-30T00:19:01.871Z,962.58
2023-04-30T00:19:57.291Z,962.58
2023-04-30T00:20:52.297Z,962.54
2023-04-30T00:21:47.408Z,962.56
2023-04-30T00:22:42.839Z,962.56
2023-04-30T00:23:37.822Z,962.58
2023-04-30T00:24:33.094Z,962.56
2023-04-30T00:25:28.459Z,962.56
2023-04-30T00:26:23.573Z,962.56
2023-04-30T00:27:18.713Z,962.56
2023-04-30T00:28:13.850Z,962.60
2023-04-30T00:29:08.866Z,962.58
2023-04-30T00:30:04.064Z,962.58
2023-04-30T00:30:59.180Z,962.60
2023-04-30T00:31:54.170Z,962.60
2023-04-30T00:32:49.304Z,962.56
2023-04-30T00:33:44.435Z,962.58
2023-04-30T00:34:39.405Z,962.58
2023-04-30T00:35:34.407Z,962.60
2023-04-30T00:36:29.517Z,962.60
2023-04-30T00:37:24.480Z,962.60
2023-04-30T00:38:22.957Z,962.62
2023-04-30T00:39:18.185Z,962.64
2023-04-30T00:40:13.140Z,962.62
2023-04-30T00:41:08.294Z,962.62
2023-04-30T00:42:03.263Z,962.60
2023-04-30T00:42:58.345Z,962.60
2023-04-30T00:43:53.799Z,962.60
2023-04-30T00:44:48.658Z,962.60
2023-04-30T00:45:43.738Z,962.60
2023-04-30T00:46:38.645Z,962.58
2023-04-30T00:47:33.814Z,962.58
2023-04-30T00:48:28.766Z,962.58
2023-04-30T00:49:24.031Z,962.58
2023-04-30T00:50:18.869Z,962.56
2023-04-30T00:51:13.970Z,962.56
2023-04-30T00:52:09.119Z,962.58
2023-04-30T00:53:04.102Z,962.56
2023-04-30T00:53:59.185Z,962.60
2023-04-30T00:54:57.005Z,962.58
2023-04-30T00:55:51.978Z,962.56
2023-04-30T00:56:47.083Z,962.56
2023-04-30T00:57:42.052Z,962.58
2023-04-30T00:58:37.198Z,962.56
2023-04-30T00:59:32.137Z,962.58
2023-04-30T01:00:27.288Z,962.56
2023-04-30T01:01:22.385Z,962.58
2023-04-30T01:02:19.147Z,962.58
2023-04-30T01:03:14.426Z,962.58
2023-04-30T01:04:09.543Z,962.60
2023-04-30T01:05:04.986Z,962.58
2023-04-30T01:06:00.283Z,962.60
2023-04-30T01:06:55.509Z,962.60
2023-04-30T01:07:50.662Z,962.56
2023-04-30T01:08:46.321Z,962.54
2023-04-30T01:09:41.324Z,962.56
2023-04-30T01:10:36.528Z,962.54
2023-04-30T01:11:31.816Z,962.54
2023-04-30T01:12:26.900Z,962.52
2023-04-30T01:13:22.350Z,962.52
2023-04-30T01:14:17.326Z,962.50
2023-04-30T01:15:12.626Z,962.50
2023-04-30T01:16:07.898Z,962.48
2023-04-30T01:17:03.283Z,962.50
2023-04-30T01:17:58.467Z,962.52
2023-04-30T01:18:53.863Z,962.52
2023-04-30T01:19:48.950Z,962.50
2023-04-30T01:20:44.158Z,962.48
2023-04-30T01:21:39.513Z,962.46
2023-04-30T01:22:34.633Z,962.48
2023-04-30T01:23:29.914Z,962.44
2023-04-30T01:24:25.052Z,962.46
2023-04-30T01:25:20.291Z,962.44
2023-04-30T01:26:15.539Z,962.46
2023-04-30T01:27:10.663Z,962.48
2023-04-30T01:28:05.948Z,962.50
2023-04-30T01:29:01.359Z,962.50
2023-04-30T01:29:56.607Z,962.54
2023-04-30T01:30:51.681Z,962.54
2023-04-30T01:31:47.154Z,962.54
2023-04-30T01:32:42.184Z,962.56
2023-04-30T01:33:37.740Z,962.54
2023-04-30T01:34:32.837Z,962.54
2023-04-30T01:35:28.135Z,962.56
2023-04-30T01:36:23.239Z,962.56
2023-04-30T01:37:18.476Z,962.56
2023-04-30T01:38:13.845Z,962.56
2023-04-30T01:39:08.981Z,962.56
2023-04-30T01:40:04.055Z,962.60
2023-04-30T01:40:59.322Z,962.60
2023-04-30T01:41:54.561Z,962.64
2023-04-30T01:42:49.807Z,962.68
2023-04-30T01:43:44.933Z,962.64
2023-04-30T01:44:40.248Z,962.66
2023-04-30T01:45:35.323Z,962.68
2023-04-30T01:46:30.673Z,962.68
2023-04-30T01:47:25.754Z,962.66
2023-04-30T01:48:21.045Z,962.66
2023-04-30T01:49:16.399Z,962.68
2023-04-30T01:50:11.657Z,962.66
2023-04-30T01:51:06.752Z,962.62
2023-04-30T01:52:02.002Z,962.62
2023-04-30T01:52:57.367Z,962.68
2023-04-30T01:53:52.614Z,962.66
2023-04-30T01:54:47.722Z,962.68
2023-04-30T01:55:42.823Z,962.69
2023-04-30T01:56:38.039Z,962.69
2023-04-30T01:57:33.298Z,962.69
2023-04-30T01:58:28.529Z,962.69
2023-04-30T01:59:23.790Z,962.69
2023-04-30T02:00:18.885Z,962.68
2023-04-30T02:01:14.156Z,962.69
2023-04-30T02:02:09.377Z,962.69
2023-04-30T02:03:04.748Z,962.68
2023-04-30T02:04:00.077Z,962.71
2023-04-30T02:04:55.044Z,962.71
2023-04-30T02:05:51.758Z,962.71
2023-04-30T02:06:47.068Z,962.73
2023-04-30T02:07:42.183Z,962.69
2023-04-30T02:08:37.670Z,962.69
2023-04-30T02:09:32.592Z,962.68
2023-04-30T02:10:27.842Z,962.66
2023-04-30T02:11:22.920Z,962.66
2023-04-30T02:12:18.056Z,962.64
2023-04-30T02:13:13.294Z,962.66
2023-04-30T02:14:08.268Z,962.64
2023-04-30T02:15:03.241Z,962.66
2023-04-30T02:15:58.350Z,962.66
2023-04-30T02:16:53.452Z,962.64
2023-04-30T02:17:48.493Z,962.66
2023-04-30T02:18:43.740Z,962.66
2023-04-30T02:19:38.618Z,962.66
2023-04-30T02:20:33.625Z,962.62
2023-04-30T02:21:28.633Z,962.62
2023-04-30T02:22:25.491Z,962.62
2023-04-30T02:23:20.721Z,962.62
2023-04-30T02:24:15.771Z,962.62
2023-04-30T02:25:10.737Z,962.62
2023-04-30T02:26:05.775Z,962.58
2023-04-30T02:27:00.839Z,962.56
2023-04-30T02:27:56.047Z,962.54
2023-04-30T02:28:51.051Z,962.56
2023-04-30T02:29:46.249Z,962.58
2023-04-30T02:30:41.079Z,962.56
2023-04-30T02:31:36.190Z,962.54
2023-04-30T02:32:31.187Z,962.54
2023-04-30T02:33:26.451Z,962.50
2023-04-30T02:34:21.529Z,962.48
2023-04-30T02:35:16.804Z,962.52
2023-04-30T02:36:12.654Z,962.50
2023-04-30T02:37:07.920Z,962.48
2023-04-30T02:38:03.848Z,962.50
2023-04-30T02:38:59.195Z,962.46
2023-04-30T02:39:54.749Z,962.48
2023-04-30T02:40:50.173Z,962.44
2023-04-30T02:41:45.395Z,962.42
2023-04-30T02:42:40.792Z,962.44
2023-04-30T02:43:36.942Z,962.42
2023-04-30T02:44:32.199Z,962.40
2023-04-30T02:45:28.056Z,962.40
2023-04-30T02:46:23.332Z,962.38
2023-04-30T02:47:18.680Z,962.38
2023-04-30T02:48:14.372Z,962.38
2023-04-30T02:49:09.774Z,962.38
2023-04-30T02:50:05.501Z,962.38
2023-04-30T02:51:00.725Z,962.36
2023-04-30T02:51:56.137Z,962.36
2023-04-30T02:52:51.812Z,962.38
2023-04-30T02:53:47.082Z,962.38
2023-04-30T02:54:42.482Z,962.44
2023-04-30T02:55:38.663Z,962.42
2023-04-30T02:56:33.773Z,962.40
2023-04-30T02:57:29.591Z,962.42
2023-04-30T02:58:24.820Z,962.42
2023-04-30T02:59:20.126Z,962.42
2023-04-30T03:00:15.906Z,962.46
2023-04-30T03:01:11.256Z,962.44
2023-04-30T03:02:06.947Z,962.44
2023-04-30T03:03:02.245Z,962.42
2023-04-30T03:03:57.418Z,962.42
2023-04-30T03:04:53.402Z,962.44
2023-04-30T03:05:48.389Z,962.44
2023-04-30T03:06:43.759Z,962.44
2023-04-30T03:07:39.988Z,962.44
2023-04-30T03:08:35.261Z,962.46
2023-04-30T03:09:31.194Z,962.44
2023-04-30T03:10:26.326Z,962.44
2023-04-30T03:11:21.464Z,962.44
2023-04-30T03:12:17.277Z,962.44
2023-04-30T03:13:12.518Z,962.46
2023-04-30T03:14:08.492Z,962.46
2023-04-30T03:15:03.816Z,962.50
2023-04-30T03:15:58.983Z,962.48
2023-04-30T03:16:54.772Z,962.48
2023-04-30T03:17:50.087Z,962.50
2023-04-30T03:18:45.387Z,962.50
2023-04-30T03:19:40.553Z,962.48
2023-04-30T03:20:37.024Z,962.48
2023-04-30T03:21:32.415Z,962.46
2023-04-30T03:22:27.541Z,962.46
2023-04-30T03:23:23.356Z,962.46
2023-04-30T03:24:18.759Z,962.44
2023-04-30T03:25:13.871Z,962.42
2023-04-30T03:26:10.362Z,962.42
2023-04-30T03:27:05.585Z,962.40
2023-04-30T03:28:01.377Z,962.42
2023-04-30T03:28:56.618Z,962.38
2023-04-30T03:29:52.204Z,962.40
2023-04-30T03:30:47.709Z,962.38
2023-04-30T03:31:43.058Z,962.38
2023-04-30T03:32:39.047Z,962.38
2023-04-30T03:33:34.006Z,962.36
2023-04-30T03:34:29.296Z,962.38
2023-04-30T03:35:24.985Z,962.36
2023-04-30T03:36:20.211Z,962.38
2023-04-30T03:37:15.450Z,962.36
2023-04-30T03:38:10.698Z,962.36
2023-04-30T03:39:05.932Z,962.38
2023-04-30T03:40:01.624Z,962.38
2023-04-30T03:40:56.578Z,962.40
2023-04-30T03:41:51.841Z,962.38
2023-04-30T03:42:48.900Z,962.38
2023-04-30T03:43:42.891Z,962.38
2023-04-30T03:44:38.319Z,962.38
2023-04-30T03:45:33.697Z,962.44
2023-04-30T03:46:28.589Z,962.44
2023-04-30T03:47:23.651Z,962.46
2023-04-30T03:48:18.809Z,962.46
2023-04-30T03:49:13.806Z,962.46
2023-04-30T03:50:09.029Z,962.40
2023-04-30T03:51:03.895Z,962.42
2023-04-30T03:51:59.158Z,962.42
2023-04-30T03:52:54.308Z,962.40
2023-04-30T03:53:49.322Z,962.40
2023-04-30T03:54:44.554Z,962.40
2023-04-30T03:55:39.457Z,962.40
2023-04-30T03:56:34.550Z,962.40
2023-04-30T03:57:29.709Z,962.38
2023-04-30T03:58:24.784Z,962.38
2023-04-30T03:59:19.863Z,962.38
2023-04-30T04:00:15.091Z,962.38
2023-04-30T04:01:09.920Z,962.38
2023-04-30T04:02:05.045Z,962.38
2023-04-30T04:02:59.991Z,962.36
2023-04-30T04:03:55.152Z,962.38
2023-04-30T04:04:50.109Z,962.40
2023-04-30T04:05:45.518Z,962.40
2023-04-30T04:06:40.605Z,962.38
2023-04-30T04:07:35.805Z,962.40
2023-04-30T04:08:31.119Z,962.40
2023-04-30T04:09:26.536Z,962.40
2023-04-30T04:10:22.088Z,962.42
2023-04-30T04:11:17.276Z,962.40
2023-04-30T04:12:12.711Z,962.44
2023-04-30T04:13:08.148Z,962.42
2023-04-30T04:14:03.491Z,962.42
2023-04-30T04:14:58.973Z,962.46
2023-04-30T04:15:54.689Z,962.46
2023-04-30T04:16:49.717Z,962.44
2023-04-30T04:17:45.054Z,962.44
2023-04-30T04:18:40.455Z,962.44
2023-04-30T04:19:35.829Z,962.44
2023-04-30T04:20:31.227Z,962.44
2023-04-30T04:21:26.309Z,962.42
2023-04-30T04:22:21.653Z,962.44
2023-04-30T04:23:17.142Z,962.44
2023-04-30T04:24:12.392Z,962.50
2023-04-30T04:25:07.671Z,962.50
2023-04-30T04:26:03.204Z,962.48
2023-04-30T04:26:58.461Z,962.50
2023-04-30T04:27:54.036Z,962.52
2023-04-30T04:28:49.156Z,962.50
2023-04-30T04:29:44.541Z,962.56
2023-04-30T04:30:39.804Z,962.58
2023-04-30T04:31:35.315Z,962.60
2023-04-30T04:32:30.523Z,962.58
2023-04-30T04:33:25.878Z,962.60
2023-04-30T04:34:21.279Z,962.62
2023-04-30T04:35:16.639Z,962.60
2023-04-30T04:36:12.106Z,962.62
2023-04-30T04:37:07.300Z,962.60
2023-04-30T04:38:02.634Z,962.64
2023-04-30T04:38:58.139Z,962.62
2023-04-30T04:39:53.893Z,962.66
2023-04-30T04:40:49.071Z,962.62
2023-04-30T04:41:44.260Z,962.64
2023-04-30T04:42:39.792Z,962.66
2023-04-30T04:43:35.641Z,962.69
2023-04-30T04:44:31.089Z,962.71
2023-04-30T04:45:26.397Z,962.71
2023-04-30T04:46:22.109Z,962.71
2023-04-30T04:47:17.218Z,962.73
2023-04-30T04:48:12.569Z,962.75
2023-04-30T04:49:08.437Z,962.77
2023-04-30T04:50:03.891Z,962.73
2023-04-30T04:50:59.236Z,962.71
2023-04-30T04:51:54.576Z,962.73
2023-04-30T04:52:49.990Z,962.68
2023-04-30T04:53:45.337Z,962.71
2023-04-30T04:54:40.845Z,962.71
2023-04-30T04:55:36.242Z,962.75
2023-04-30T04:56:31.563Z,962.73
2023-04-30T04:57:27.109Z,962.73
2023-04-30T04:58:22.425Z,962.73
2023-04-30T04:59:17.906Z,962.73
2023-04-30T05:00:12.924Z,962.71
2023-04-30T05:01:08.037Z,962.73
2023-04-30T05:02:03.191Z,962.73
2023-04-30T05:02:58.227Z,962.71
2023-04-30T05:03:53.276Z,962.71
2023-04-30T05:04:48.266Z,962.77
2023-04-30T05:05:43.414Z,962.73
2023-04-30T05:06:38.428Z,962.75
2023-04-30T05:07:33.591Z,962.73
2023-04-30T05:08:28.796Z,962.71
2023-04-30T05:09:23.776Z,962.73
2023-04-30T05:10:18.926Z,962.73
2023-04-30T05:11:15.640Z,962.73
2023-04-30T05:12:09.076Z,962.69
2023-04-30T05:13:06.218Z,962.73
2023-04-30T05:14:01.754Z,962.73
2023-04-30T05:14:57.165Z,962.73
2023-04-30T05:15:52.808Z,962.73
2023-04-30T05:16:48.124Z,962.73
2023-04-30T05:17:43.529Z,962.75
2023-04-30T05:18:38.961Z,962.69
2023-04-30T05:19:34.533Z,962.73
2023-04-30T05:20:29.879Z,962.71
2023-04-30T05:21:25.446Z,962.71
2023-04-30T05:22:20.678Z,962.75
2023-04-30T05:23:16.374Z,962.77
2023-04-30T05:24:11.788Z,962.73
2023-04-30T05:25:07.259Z,962.77
2023-04-30T05:26:02.745Z,962.77
2023-04-30T05:26:58.043Z,962.79
2023-04-30T05:27:52.847Z,962.77
2023-04-30T05:28:47.966Z,962.75
2023-04-30T05:29:42.934Z,962.77
2023-04-30T05:30:38.114Z,962.77
2023-04-30T05:31:33.227Z,962.77
2023-04-30T05:32:28.118Z,962.73
2023-04-30T05:33:23.058Z,962.73
2023-04-30T05:34:18.192Z,962.75
2023-04-30T05:35:13.281Z,962.81
2023-04-30T05:36:09.952Z,962.75
2023-04-30T05:37:04.946Z,962.75
2023-04-30T05:37:59.985Z,962.71
2023-04-30T05:38:55.017Z,962.71
2023-04-30T05:39:50.941Z,962.71
2023-04-30T05:40:46.437Z,962.71
2023-04-30T05:41:42.213Z,962.69
2023-04-30T05:42:37.443Z,962.71
2023-04-30T05:43:32.973Z,962.69
2023-04-30T05:44:28.474Z,962.71
2023-04-30T05:45:24.120Z,962.75
2023-04-30T05:46:19.525Z,962.75
2023-04-30T05:47:15.636Z,962.73
2023-04-30T05:48:10.877Z,962.75
2023-04-30T05:49:06.388Z,962.75
2023-04-30T05:50:01.346Z,962.73
2023-04-30T05:50:56.376Z,962.75
2023-04-30T05:51:51.522Z,962.73
2023-04-30T05:52:46.566Z,962.75
2023-04-30T05:53:47.224Z,962.71
2023-04-30T05:54:42.610Z,962.73
2023-04-30T05:55:37.978Z,962.75
2023-04-30T05:56:34.001Z,962.73
2023-04-30T05:57:29.243Z,962.73
2023-04-30T05:58:24.765Z,962.75
2023-04-30T05:59:21.079Z,962.77
2023-04-30T06:00:16.484Z,962.75
2023-04-30T06:01:12.302Z,962.75
2023-04-30T06:02:07.713Z,962.75
2023-04-30T06:03:03.125Z,962.73
2023-04-30T06:03:59.093Z,962.77
2023-04-30T06:04:54.413Z,962.77
2023-04-30T06:05:50.281Z,962.73
2023-04-30T06:06:45.953Z,962.79
2023-04-30T06:07:41.035Z,962.77
2023-04-30T06:08:36.967Z,962.79
2023-04-30T06:09:32.507Z,962.83
2023-04-30T06:10:27.982Z,962.83
2023-04-30T06:11:24.419Z,962.81
2023-04-30T06:12:19.634Z,962.83
2023-04-30T06:13:15.571Z,962.85
2023-04-30T06:14:10.945Z,962.83
2023-04-30T06:15:06.285Z,962.81
2023-04-30T06:16:02.169Z,962.81
2023-04-30T06:16:57.786Z,962.79
2023-04-30T06:17:53.557Z,962.79
2023-04-30T06:18:48.773Z,962.81
2023-04-30T06:19:44.309Z,962.81
2023-04-30T06:20:40.215Z,962.81
2023-04-30T06:21:35.732Z,962.83
2023-04-30T06:22:30.940Z,962.79
2023-04-30T06:23:27.627Z,962.81
2023-04-30T06:24:22.980Z,962.79
2023-04-30T06:25:18.916Z,962.79
2023-04-30T06:26:14.270Z,962.79
2023-04-30T06:27:09.858Z,962.77
2023-04-30T06:28:05.526Z,962.77
2023-04-30T06:29:01.119Z,962.79
2023-04-30T06:29:57.006Z,962.79
2023-04-30T06:30:52.172Z,962.79
2023-04-30T06:31:47.642Z,962.79
2023-04-30T06:32:43.326Z,962.81
2023-04-30T06:33:38.671Z,962.81
2023-04-30T06:34:34.044Z,962.85
2023-04-30T06:35:30.384Z,962.83
2023-04-30T06:36:25.916Z,962.83
2023-04-30T06:37:21.878Z,962.81
2023-04-30T06:38:17.186Z,962.83
2023-04-30T06:39:12.541Z,962.85
2023-04-30T06:40:08.393Z,962.83
2023-04-30T06:41:03.751Z,962.83
2023-04-30T06:41:59.746Z,962.83
2023-04-30T06:42:54.877Z,962.81
2023-04-30T06:43:50.400Z,962.85
2023-04-30T06:44:46.420Z,962.87
2023-04-30T06:45:41.585Z,962.83
2023-04-30T06:46:37.211Z,962.87
2023-04-30T06:47:33.393Z,962.85
2023-04-30T06:48:28.795Z,962.85
2023-04-30T06:49:24.653Z,962.87
2023-04-30T06:50:20.086Z,962.87
2023-04-30T06:51:15.660Z,962.85
2023-04-30T06:52:11.561Z,962.85
2023-04-30T06:53:06.862Z,962.87
2023-04-30T06:54:02.277Z,962.87
2023-04-30T06:54:57.317Z,962.85
2023-04-30T06:55:52.300Z,962.87
2023-04-30T06:56:47.660Z,962.89
2023-04-30T06:57:42.435Z,962.87
2023-04-30T06:58:37.507Z,962.87
2023-04-30T06:59:32.524Z,962.83
2023-04-30T07:00:27.555Z,962.89
2023-04-30T07:01:22.631Z,962.85
2023-04-30T07:02:18.433Z,962.87
2023-04-30T07:03:15.182Z,962.89
2023-04-30T07:04:10.213Z,962.89
2023-04-30T07:05:05.221Z,962.89
2023-04-30T07:06:00.353Z,962.85
2023-04-30T07:06:55.365Z,962.87
2023-04-30T07:07:50.236Z,962.85
2023-04-30T07:08:45.201Z,962.81
2023-04-30T07:09:40.262Z,962.83
2023-04-30T07:10:35.393Z,962.83
2023-04-30T07:11:30.959Z,962.83
2023-04-30T07:12:26.707Z,962.81
2023-04-30T07:13:22.027Z,962.79
2023-04-30T07:14:17.724Z,962.75
2023-04-30T07:15:13.312Z,962.75
2023-04-30T07:16:08.915Z,962.79
2023-04-30T07:17:04.546Z,962.77
2023-04-30T07:17:59.985Z,962.79
2023-04-30T07:18:55.454Z,962.79
2023-04-30T07:19:50.982Z,962.77
2023-04-30T07:20:45.983Z,962.77
2023-04-30T07:21:41.032Z,962.71
2023-04-30T07:22:36.073Z,962.73
2023-04-30T07:23:31.108Z,962.69
2023-04-30T07:24:26.139Z,962.71
2023-04-30T07:25:21.170Z,962.71
2023-04-30T07:26:16.240Z,962.73
2023-04-30T07:27:11.231Z,962.73
2023-04-30T07:28:06.259Z,962.77
2023-04-30T07:29:01.274Z,962.79
2023-04-30T07:29:56.688Z,962.77
2023-04-30T07:30:51.427Z,962.83
2023-04-30T07:31:46.645Z,962.77
2023-04-30T07:32:41.559Z,962.79
2023-04-30T07:33:36.581Z,962.73
2023-04-30T07:34:33.873Z,962.75
2023-04-30T07:35:28.977Z,962.73
2023-04-30T07:36:24.140Z,962.77
2023-04-30T07:37:19.055Z,962.75
2023-04-30T07:38:14.057Z,962.71
2023-04-30T07:39:09.140Z,962.75
2023-04-30T07:40:04.201Z,962.75
2023-04-30T07:40:59.253Z,962.75
2023-04-30T07:41:54.190Z,962.77
2023-04-30T07:42:49.692Z,962.73
2023-04-30T07:43:46.307Z,962.69
2023-04-30T07:44:41.685Z,962.75
2023-04-30T07:45:37.428Z,962.79
2023-04-30T07:46:33.158Z,962.75
2023-04-30T07:47:28.441Z,962.75
2023-04-30T07:49:49.461Z,962.71
2023-04-30T07:50:43.148Z,962.73
2023-04-30T07:51:38.521Z,962.73
2023-04-30T07:52:33.827Z,962.71
2023-04-30T07:53:29.320Z,962.71
2023-04-30T07:54:24.781Z,962.73
2023-04-30T07:55:20.156Z,962.77
2023-04-30T07:56:15.802Z,962.71
2023-04-30T07:57:11.045Z,962.73
2023-04-30T07:58:06.529Z,962.73
2023-04-30T07:59:01.883Z,962.75
2023-04-30T07:59:57.792Z,962.71
2023-04-30T08:00:52.928Z,962.69
2023-04-30T08:01:48.444Z,962.69
2023-04-30T08:02:43.905Z,962.69
2023-04-30T08:03:39.106Z,962.69
2023-04-30T08:04:34.773Z,962.68
2023-04-30T08:05:29.875Z,962.69
2023-04-30T08:06:25.593Z,962.71
2023-04-30T08:07:21.039Z,962.71
2023-04-30T08:08:16.391Z,962.73
2023-04-30T08:09:11.900Z,962.73
2023-04-30T08:10:07.510Z,962.71
2023-04-30T08:11:02.906Z,962.71
2023-04-30T08:11:58.437Z,962.71
2023-04-30T08:12:53.892Z,962.69
2023-04-30T08:13:49.312Z,962.69
2023-04-30T08:14:44.706Z,962.73
2023-04-30T08:15:40.137Z,962.69
2023-04-30T08:16:35.645Z,962.71
2023-04-30T08:17:31.132Z,962.71
2023-04-30T08:18:26.553Z,962.66
2023-04-30T08:19:21.899Z,962.66
2023-04-30T08:20:17.216Z,962.68
2023-04-30T08:21:12.729Z,962.68
2023-04-30T08:22:08.349Z,962.69
2023-04-30T08:23:03.733Z,962.69
2023-04-30T08:23:58.940Z,962.69
2023-04-30T08:24:54.289Z,962.68
2023-04-30T08:25:49.755Z,962.73
2023-04-30T08:26:45.410Z,962.73
2023-04-30T08:27:40.874Z,962.69
2023-04-30T08:28:36.396Z,962.68
2023-04-30T08:29:31.841Z,962.69
2023-04-30T08:30:27.483Z,962.73
2023-04-30T08:31:22.850Z,962.69
2023-04-30T08:32:18.653Z,962.71
2023-04-30T08:33:13.760Z,962.73
2023-04-30T08:34:09.242Z,962.68
2023-04-30T08:35:04.578Z,962.71
2023-04-30T08:35:59.949Z,962.71
2023-04-30T08:36:55.487Z,962.68
2023-04-30T08:37:50.953Z,962.64
2023-04-30T08:38:46.332Z,962.66
2023-04-30T08:39:41.810Z,962.66
2023-04-30T08:40:50.460Z,962.60
2023-04-30T08:41:34.022Z,962.62
2023-04-30T08:42:28.220Z,962.62
2023-04-30T08:43:23.913Z,962.56
2023-04-30T08:44:19.378Z,962.60
2023-04-30T08:45:14.872Z,962.60
2023-04-30T08:46:10.353Z,962.64
2023-04-30T08:47:06.000Z,962.58
2023-04-30T08:48:01.335Z,962.60
2023-04-30T08:48:56.802Z,962.58
2023-04-30T08:49:52.239Z,962.58
2023-04-30T08:50:47.577Z,962.52
2023-04-30T08:51:43.139Z,962.54
2023-04-30T08:52:38.473Z,962.52
2023-04-30T08:53:33.843Z,962.52
2023-04-30T08:54:29.275Z,962.56
2023-04-30T08:55:24.722Z,962.58
2023-04-30T08:56:20.118Z,962.60
2023-04-30T08:57:15.723Z,962.62
2023-04-30T08:58:11.109Z,962.60
2023-04-30T08:59:06.382Z,962.58
2023-04-30T09:00:01.691Z,962.58
2023-04-30T09:00:57.078Z,962.56
2023-04-30T09:01:53.940Z,962.56
2023-04-30T09:02:48.150Z,962.56
2023-04-30T09:03:43.646Z,962.56
2023-04-30T09:04:39.044Z,962.56
2023-04-30T09:05:34.466Z,962.54
2023-04-30T09:06:30.032Z,962.52
2023-04-30T09:07:25.157Z,962.46
2023-04-30T09:08:20.517Z,962.50
2023-04-30T09:09:15.989Z,962.54
2023-04-30T09:10:11.385Z,962.52
2023-04-30T09:11:07.019Z,962.54
2023-04-30T09:12:02.313Z,962.48
2023-04-30T09:12:57.705Z,962.52
2023-04-30T09:13:53.266Z,962.50
2023-04-30T09:14:48.639Z,962.62
2023-04-30T09:15:43.878Z,962.48
2023-04-30T09:16:39.417Z,962.46
2023-04-30T09:17:34.592Z,962.44
2023-04-30T09:18:30.117Z,962.50
2023-04-30T09:19:25.617Z,962.54
2023-04-30T09:20:21.092Z,962.50
2023-04-30T09:21:16.621Z,962.46
2023-04-30T09:22:12.010Z,962.48
2023-04-30T09:23:07.346Z,962.46
2023-04-30T09:24:02.762Z,962.50
2023-04-30T09:24:58.248Z,962.54
2023-04-30T09:25:53.805Z,962.50
2023-04-30T09:26:49.355Z,962.54
2023-04-30T09:27:44.488Z,962.50
2023-04-30T09:28:39.926Z,962.46
2023-04-30T09:29:35.319Z,962.48
2023-04-30T09:30:30.748Z,962.44
2023-04-30T09:31:26.308Z,962.48
2023-04-30T09:32:21.542Z,962.46
2023-04-30T09:33:17.065Z,962.44
2023-04-30T09:34:12.587Z,962.46
2023-04-30T09:35:07.948Z,962.46
2023-04-30T09:36:03.588Z,962.46
2023-04-30T09:36:58.987Z,962.46
2023-04-30T09:37:54.228Z,962.42
2023-04-30T09:38:49.648Z,962.44
2023-04-30T09:39:45.091Z,962.44
2023-04-30T09:40:40.525Z,962.48
2023-04-30T09:41:36.063Z,962.40
2023-04-30T09:42:31.532Z,962.46
2023-04-30T09:43:26.842Z,962.48
2023-04-30T09:44:22.232Z,962.48
2023-04-30T09:45:17.703Z,962.42
2023-04-30T09:46:13.128Z,962.42
2023-04-30T09:47:08.578Z,962.42
2023-04-30T09:48:16.535Z,962.40
2023-04-30T09:48:59.549Z,962.40
2023-04-30T09:49:54.009Z,962.38
2023-04-30T09:50:48.750Z,962.36
2023-04-30T09:51:44.056Z,962.40
2023-04-30T09:52:38.955Z,962.40
2023-04-30T09:53:34.178Z,962.36
2023-04-30T09:54:29.188Z,962.42
2023-04-30T09:55:24.320Z,962.40
2023-04-30T09:56:19.718Z,962.40
2023-04-30T09:57:15.383Z,962.42
2023-04-30T09:58:10.597Z,962.38
2023-04-30T09:59:05.693Z,962.40
2023-04-30T10:00:00.741Z,962.36
2023-04-30T10:00:56.063Z,962.34
2023-04-30T10:01:52.340Z,962.38
2023-04-30T10:02:47.452Z,962.40
2023-04-30T10:03:42.562Z,962.40
2023-04-30T10:04:37.700Z,962.40
2023-04-30T10:05:32.657Z,962.42
2023-04-30T10:06:27.851Z,962.40
2023-04-30T10:07:23.219Z,962.34
2023-04-30T10:08:18.043Z,962.36
2023-04-30T10:09:13.123Z,962.36
2023-04-30T10:10:08.209Z,962.38
2023-04-30T10:11:03.175Z,962.34
2023-04-30T10:11:58.932Z,962.32
2023-04-30T10:12:54.404Z,962.38
2023-04-30T10:13:49.782Z,962.30
2023-04-30T10:14:45.086Z,962.32
2023-04-30T10:15:40.565Z,962.32
2023-04-30T10:16:35.965Z,962.32
2023-04-30T10:17:31.407Z,962.30
2023-04-30T10:18:26.834Z,962.30
2023-04-30T10:19:22.407Z,962.32
2023-04-30T10:20:17.737Z,962.30
2023-04-30T10:21:13.283Z,962.30
2023-04-30T10:22:08.863Z,962.28
2023-04-30T10:23:04.376Z,962.24
2023-04-30T10:23:59.776Z,962.30
2023-04-30T10:24:58.788Z,962.28
2023-04-30T10:25:54.116Z,962.28
2023-04-30T10:26:49.724Z,962.30
2023-04-30T10:27:45.109Z,962.30
2023-04-30T10:28:40.454Z,962.32
2023-04-30T10:29:35.930Z,962.28
2023-04-30T10:30:31.697Z,962.28
2023-04-30T10:31:26.898Z,962.26
2023-04-30T10:32:22.539Z,962.30
2023-04-30T10:33:18.238Z,962.28
2023-04-30T10:34:13.558Z,962.28
2023-04-30T10:35:09.069Z,962.22
2023-04-30T10:36:04.571Z,962.28
2023-04-30T10:37:00.056Z,962.28
2023-04-30T10:37:55.607Z,962.26
2023-04-30T10:38:50.656Z,962.26
2023-04-30T10:39:45.768Z,962.24
2023-04-30T10:40:40.869Z,962.24
2023-04-30T10:41:35.942Z,962.24
2023-04-30T10:42:30.915Z,962.26
2023-04-30T10:43:26.031Z,962.26
2023-04-30T10:44:21.089Z,962.30
2023-04-30T10:45:16.215Z,962.26
2023-04-30T10:46:11.264Z,962.30
2023-04-30T10:47:06.398Z,962.36
2023-04-30T10:48:02.118Z,962.26
2023-04-30T10:48:57.208Z,962.30
2023-04-30T10:49:52.249Z,962.32
2023-04-30T10:50:47.316Z,962.28
2023-04-30T10:51:43.173Z,962.36
2023-04-30T10:52:38.472Z,962.28
2023-04-30T10:53:34.091Z,962.30
2023-04-30T10:54:29.476Z,962.24
2023-04-30T10:55:26.154Z,962.24
2023-04-30T10:56:20.412Z,962.28
2023-04-30T10:57:15.768Z,962.24
2023-04-30T10:58:11.300Z,962.26
2023-04-30T10:59:06.572Z,962.26
2023-04-30T11:00:01.965Z,962.26
2023-04-30T11:00:57.301Z,962.28
2023-04-30T11:01:53.115Z,962.26
2023-04-30T11:02:48.475Z,962.28
2023-04-30T11:03:43.948Z,962.28
2023-04-30T11:04:38.955Z,962.26
2023-04-30T11:05:33.991Z,962.24
2023-04-30T11:06:29.112Z,962.26
2023-04-30T11:07:24.181Z,962.24
2023-04-30T11:08:19.159Z,962.26
2023-04-30T11:09:14.267Z,962.24
2023-04-30T11:10:09.322Z,962.22
2023-04-30T11:11:06.420Z,962.20
2023-04-30T11:12:01.565Z,962.18
2023-04-30T11:12:56.592Z,962.14
2023-04-30T11:13:51.709Z,962.20
2023-04-30T11:14:46.794Z,962.16
2023-04-30T11:15:41.964Z,962.16
2023-04-30T11:16:37.099Z,962.18
2023-04-30T11:17:32.272Z,962.16
2023-04-30T11:18:27.373Z,962.18
2023-04-30T11:19:22.268Z,962.16
2023-04-30T11:20:17.248Z,962.16
2023-04-30T11:21:12.392Z,962.13
2023-04-30T11:22:07.400Z,962.11
2023-04-30T11:23:02.559Z,962.13
2023-04-30T11:23:57.928Z,962.13
2023-04-30T11:24:53.474Z,962.13
2023-04-30T11:25:48.974Z,962.13
2023-04-30T11:26:44.060Z,962.13
2023-04-30T11:27:39.349Z,962.11
2023-04-30T11:28:34.331Z,962.11
2023-04-30T11:29:29.456Z,962.07
2023-04-30T11:30:24.515Z,962.09
2023-04-30T11:31:19.627Z,962.07
2023-04-30T11:32:14.879Z,962.09